Tremonton, Utah
Current Conditions -  °F | °C
As of 6:55 AM on Monday 24 Nov 2014 (Local Time) from KBMC Reporting Station
Overcast Overcast  
Wind Chill: 28°   Ceiling: 4700
Heat Index: 36°   Visibility: 10mi
Dew Point: 23°   Wind: 12mph
Humidity: 61%   Direction: 320°NW
Pressure: 30.25"   Gusts: NA
Location:  41.71°N, 112.17°W
Report Text: KBMC 241355Z AUTO 32010KT 10SM BKN047 BKN070 OVC090 02/M05 A3025 RMK AO1 T00211048
Loading
Personal Weather Stations






























Interactive Weather Map New forecast layout! Learn more

10-Day Weather Forecast

Advertisements
Track Severe Weather on mobile